Time;durP1;ratioP1;P1;durP2;ratioP2;P2;SDS_P1;SDS_P2;PMS_P1;PMS_P2;Temp;Humidity;BMP_temperature;BMP_pressure;BME280_temperature;BME280_humidity;BME280_pressure;Samples;Min_cycle;Max_cycle;Signal;HPM_P1;HPM_P2
2020/03/14 00:01:40;;;;;;;3.97;2.77;;;;;;;19.80;39.25;101065.39;;;;-53
2020/03/14 00:05:39;;;;;;;4.06;2.50;;;;;;;19.77;39.25;101067.36;;;;-53
2020/03/14 00:09:39;;;;;;;3.83;2.74;;;;;;;19.76;39.25;101066.85;;;;-53
2020/03/14 00:13:39;;;;;;;3.27;2.57;;;;;;;19.73;39.27;101067.81;;;;-54
2020/03/14 00:16:39;;;;;;;3.09;2.53;;;;;;;19.71;39.27;101066.97;;;;-53
2020/03/14 00:19:39;;;;;;;3.11;2.40;;;;;;;19.71;39.24;101072.85;;;;-53
2020/03/14 00:22:39;;;;;;;3.57;2.71;;;;;;;19.70;39.27;101071.73;;;;-53
2020/03/14 00:25:39;;;;;;;3.20;2.68;;;;;;;19.68;39.25;101069.22;;;;-53
2020/03/14 00:28:39;;;;;;;3.34;2.60;;;;;;;19.67;39.25;101066.20;;;;-53
2020/03/14 00:31:39;;;;;;;3.72;2.36;;;;;;;19.65;39.27;101063.59;;;;-53
2020/03/14 00:34:39;;;;;;;3.03;2.45;;;;;;;19.64;39.33;101064.54;;;;-53
2020/03/14 00:37:39;;;;;;;2.87;2.39;;;;;;;19.63;39.28;101067.67;;;;-53
2020/03/14 00:40:39;;;;;;;2.82;2.49;;;;;;;19.62;39.28;101063.26;;;;-53
2020/03/14 00:43:39;;;;;;;3.22;2.48;;;;;;;19.61;39.32;101061.91;;;;-53
2020/03/14 00:46:39;;;;;;;2.98;2.39;;;;;;;19.59;39.27;101062.36;;;;-53
2020/03/14 00:49:39;;;;;;;3.03;2.60;;;;;;;19.59;39.32;101064.87;;;;-53
2020/03/14 00:52:39;;;;;;;3.36;2.47;;;;;;;19.56;39.28;101060.20;;;;-53
2020/03/14 00:55:39;;;;;;;4.42;2.73;;;;;;;19.56;39.35;101060.29;;;;-53
2020/03/14 00:58:39;;;;;;;3.30;2.59;;;;;;;19.54;39.33;101061.03;;;;-53
2020/03/14 01:01:39;;;;;;;3.43;2.62;;;;;;;19.53;39.28;101058.30;;;;-53
2020/03/14 01:05:39;;;;;;;3.35;2.41;;;;;;;19.52;39.30;101062.98;;;;-53
2020/03/14 01:08:39;;;;;;;3.67;2.69;;;;;;;19.50;39.30;101065.27;;;;-52
2020/03/14 01:11:39;;;;;;;3.09;2.41;;;;;;;19.49;39.36;101070.47;;;;-54
2020/03/14 01:14:39;;;;;;;3.39;2.67;;;;;;;19.48;39.32;101064.45;;;;-53
2020/03/14 01:17:39;;;;;;;3.20;2.60;;;;;;;19.47;39.33;101064.39;;;;-53
2020/03/14 01:20:40;;;;;;;3.29;2.57;;;;;;;19.45;39.36;101064.11;;;;-53
2020/03/14 01:23:43;;;;;;;2.59;2.39;;;;;;;19.45;39.33;101068.97;;;;-53
2020/03/14 01:29:39;;;;;;;3.09;2.33;;;;;;;19.41;39.37;101068.57;;;;-53
2020/03/14 01:32:39;;;;;;;3.47;2.38;;;;;;;19.41;39.36;101066.91;;;;-53
2020/03/14 01:35:39;;;;;;;2.99;2.39;;;;;;;19.40;39.37;101061.16;;;;-53
2020/03/14 01:38:39;;;;;;;2.97;2.40;;;;;;;19.38;39.34;101056.18;;;;-53
2020/03/14 01:41:39;;;;;;;3.51;2.60;;;;;;;19.37;39.36;101052.34;;;;-54
2020/03/14 01:44:39;;;;;;;2.63;2.29;;;;;;;19.36;39.35;101045.75;;;;-53
2020/03/14 01:47:39;;;;;;;3.06;2.67;;;;;;;19.34;39.39;101049.49;;;;-54
2020/03/14 01:50:39;;;;;;;3.93;2.54;;;;;;;19.33;39.40;101041.34;;;;-53
2020/03/14 01:53:39;;;;;;;2.95;2.51;;;;;;;19.33;39.35;101041.23;;;;-53
2020/03/14 01:56:39;;;;;;;2.58;2.32;;;;;;;19.31;39.36;101038.72;;;;-53
2020/03/14 01:59:39;;;;;;;3.25;2.61;;;;;;;19.31;39.37;101038.78;;;;-54
2020/03/14 02:02:39;;;;;;;3.63;2.58;;;;;;;19.29;39.34;101039.34;;;;-53
2020/03/14 02:05:39;;;;;;;3.44;2.61;;;;;;;19.29;39.39;101041.84;;;;-53
2020/03/14 02:08:39;;;;;;;3.38;2.43;;;;;;;19.27;39.36;101033.98;;;;-54
2020/03/14 02:11:39;;;;;;;3.58;2.55;;;;;;;19.26;39.37;101030.80;;;;-53
2020/03/14 02:14:39;;;;;;;3.13;2.54;;;;;;;19.26;39.37;101031.56;;;;-53
2020/03/14 02:17:39;;;;;;;4.17;2.62;;;;;;;19.24;39.39;101030.30;;;;-53
2020/03/14 02:20:39;;;;;;;3.31;2.57;;;;;;;19.24;39.37;101025.48;;;;-53
2020/03/14 02:23:39;;;;;;;3.43;2.47;;;;;;;19.22;39.40;101025.16;;;;-53
2020/03/14 02:26:39;;;;;;;3.38;2.55;;;;;;;19.22;39.43;101022.97;;;;-54
2020/03/14 02:29:39;;;;;;;3.31;2.52;;;;;;;19.21;39.40;101021.92;;;;-53
2020/03/14 02:32:39;;;;;;;2.87;2.57;;;;;;;19.20;39.44;101020.53;;;;-53
2020/03/14 02:35:39;;;;;;;2.42;2.22;;;;;;;19.19;39.40;101017.97;;;;-53
2020/03/14 02:38:39;;;;;;;3.35;2.58;;;;;;;19.18;39.44;101018.41;;;;-53
2020/03/14 02:41:39;;;;;;;3.62;2.63;;;;;;;19.17;39.40;101014.39;;;;-53
2020/03/14 02:44:39;;;;;;;3.15;2.53;;;;;;;19.17;39.36;101013.62;;;;-53
2020/03/14 02:47:39;;;;;;;4.51;2.68;;;;;;;19.15;39.41;101011.61;;;;-54
2020/03/14 02:50:39;;;;;;;3.05;2.57;;;;;;;19.14;39.39;101017.95;;;;-53
2020/03/14 02:53:39;;;;;;;2.80;2.45;;;;;;;19.13;39.37;101011.94;;;;-53
2020/03/14 02:56:39;;;;;;;3.51;2.63;;;;;;;19.13;39.45;101011.19;;;;-53
2020/03/14 02:59:39;;;;;;;2.95;2.59;;;;;;;19.12;39.38;101010.41;;;;-53
2020/03/14 03:02:39;;;;;;;3.30;2.59;;;;;;;19.11;39.47;101006.04;;;;-53
2020/03/14 03:05:39;;;;;;;3.07;2.57;;;;;;;19.11;39.45;101012.97;;;;-53
2020/03/14 03:08:39;;;;;;;3.39;2.73;;;;;;;19.09;39.43;101007.16;;;;-53
2020/03/14 03:11:39;;;;;;;3.47;2.49;;;;;;;19.09;39.42;101008.99;;;;-53
2020/03/14 03:14:39;;;;;;;3.21;2.43;;;;;;;19.08;39.46;101005.42;;;;-53
2020/03/14 03:17:39;;;;;;;3.34;2.57;;;;;;;19.06;39.44;101006.44;;;;-53
2020/03/14 03:20:39;;;;;;;2.63;2.43;;;;;;;19.06;39.42;101009.23;;;;-53
2020/03/14 03:23:39;;;;;;;3.07;2.44;;;;;;;19.04;39.41;101011.52;;;;-53
2020/03/14 03:26:39;;;;;;;2.77;2.48;;;;;;;19.04;39.44;101018.88;;;;-53
2020/03/14 03:29:39;;;;;;;3.04;2.47;;;;;;;19.04;39.41;101020.10;;;;-53
2020/03/14 03:32:39;;;;;;;3.46;2.50;;;;;;;19.02;39.48;101018.44;;;;-53
2020/03/14 03:35:39;;;;;;;3.66;2.52;;;;;;;19.02;39.45;101019.32;;;;-53
2020/03/14 03:38:39;;;;;;;3.43;2.63;;;;;;;19.01;39.43;101021.28;;;;-53
2020/03/14 03:41:39;;;;;;;2.69;2.29;;;;;;;19.00;39.44;101027.35;;;;-54
2020/03/14 03:44:39;;;;;;;3.08;2.39;;;;;;;19.00;39.44;101028.59;;;;-53
2020/03/14 03:47:39;;;;;;;3.16;2.58;;;;;;;18.99;39.46;101030.22;;;;-53
2020/03/14 03:50:39;;;;;;;3.35;2.63;;;;;;;18.99;39.46;101034.05;;;;-53
2020/03/14 03:53:39;;;;;;;4.06;2.67;;;;;;;18.98;39.43;101039.96;;;;-53
2020/03/14 03:56:39;;;;;;;2.99;2.40;;;;;;;18.96;39.48;101037.02;;;;-53
2020/03/14 03:59:40;;;;;;;3.42;2.69;;;;;;;18.96;39.48;101041.09;;;;-54
2020/03/14 04:02:39;;;;;;;3.35;2.55;;;;;;;18.95;39.44;101039.14;;;;-54
2020/03/14 04:05:39;;;;;;;3.68;2.63;;;;;;;18.94;39.46;101037.74;;;;-53
2020/03/14 04:08:39;;;;;;;3.42;2.52;;;;;;;18.94;39.46;101038.17;;;;-53
2020/03/14 04:11:39;;;;;;;2.60;2.32;;;;;;;18.93;39.44;101043.30;;;;-54
2020/03/14 04:14:39;;;;;;;2.71;2.37;;;;;;;18.92;39.48;101043.83;;;;-54
2020/03/14 04:17:39;;;;;;;3.31;2.65;;;;;;;18.92;39.51;101039.56;;;;-54
2020/03/14 04:20:39;;;;;;;2.71;2.35;;;;;;;18.91;39.44;101040.08;;;;-53
2020/03/14 04:23:39;;;;;;;2.97;2.51;;;;;;;18.90;39.50;101039.79;;;;-54
2020/03/14 04:26:39;;;;;;;2.97;2.59;;;;;;;18.90;39.47;101037.01;;;;-53
2020/03/14 04:29:39;;;;;;;2.66;2.19;;;;;;;18.89;39.46;101039.63;;;;-53
2020/03/14 04:32:40;;;;;;;3.29;2.51;;;;;;;18.89;39.48;101048.50;;;;-54
2020/03/14 04:35:39;;;;;;;2.86;2.41;;;;;;;18.88;39.47;101047.95;;;;-54
2020/03/14 04:38:39;;;;;;;2.78;2.36;;;;;;;18.87;39.50;101046.59;;;;-53
2020/03/14 04:41:39;;;;;;;2.71;2.29;;;;;;;18.88;39.45;101048.00;;;;-54
2020/03/14 04:44:39;;;;;;;3.01;2.43;;;;;;;18.87;39.52;101047.93;;;;-53
2020/03/14 04:47:39;;;;;;;2.79;2.47;;;;;;;18.87;39.49;101048.77;;;;-53
2020/03/14 04:50:39;;;;;;;2.42;2.22;;;;;;;18.88;39.54;101046.27;;;;-53
2020/03/14 04:53:39;;;;;;;3.01;2.35;;;;;;;18.89;39.52;101045.15;;;;-53
2020/03/14 04:56:39;;;;;;;3.00;2.41;;;;;;;18.90;39.52;101041.53;;;;-53
2020/03/14 04:59:39;;;;;;;3.26;2.22;;;;;;;18.92;39.56;101042.37;;;;-54
2020/03/14 05:02:39;;;;;;;2.74;2.23;;;;;;;18.94;39.57;101041.85;;;;-53
2020/03/14 05:05:39;;;;;;;2.77;2.40;;;;;;;18.97;39.51;101042.83;;;;-53
2020/03/14 05:08:39;;;;;;;2.95;2.31;;;;;;;19.01;39.52;101046.55;;;;-53
2020/03/14 05:11:39;;;;;;;3.19;2.29;;;;;;;19.05;39.47;101042.20;;;;-53
2020/03/14 05:14:39;;;;;;;2.56;2.25;;;;;;;19.09;39.49;101038.80;;;;-53
2020/03/14 05:17:39;;;;;;;3.30;2.44;;;;;;;19.14;39.55;101037.11;;;;-53
2020/03/14 05:20:39;;;;;;;3.19;2.49;;;;;;;19.18;39.55;101035.09;;;;-53
2020/03/14 05:23:39;;;;;;;2.88;2.41;;;;;;;19.21;39.61;101033.64;;;;-53
2020/03/14 05:26:39;;;;;;;2.63;2.35;;;;;;;19.25;39.58;101034.59;;;;-53
2020/03/14 05:29:39;;;;;;;2.63;2.24;;;;;;;19.29;39.62;101037.66;;;;-54
2020/03/14 05:32:39;;;;;;;2.45;2.21;;;;;;;19.33;39.62;101039.45;;;;-53
2020/03/14 05:35:39;;;;;;;2.82;2.05;;;;;;;19.36;39.69;101033.98;;;;-53
2020/03/14 05:38:39;;;;;;;3.35;2.10;;;;;;;19.41;39.71;101030.88;;;;-53
2020/03/14 05:41:39;;;;;;;3.03;2.22;;;;;;;19.45;39.72;101029.44;;;;-53
2020/03/14 05:44:39;;;;;;;2.66;2.03;;;;;;;19.47;39.68;101019.66;;;;-53
2020/03/14 05:47:39;;;;;;;2.41;2.19;;;;;;;19.51;39.66;101021.98;;;;-53
2020/03/14 05:50:39;;;;;;;2.55;2.32;;;;;;;19.54;39.68;101023.73;;;;-53
2020/03/14 05:53:39;;;;;;;3.11;2.34;;;;;;;19.59;39.70;101024.26;;;;-53
2020/03/14 05:56:39;;;;;;;2.49;2.04;;;;;;;19.61;39.71;101023.33;;;;-54
2020/03/14 05:59:39;;;;;;;2.30;2.09;;;;;;;19.65;39.65;101027.27;;;;-54
2020/03/14 06:02:39;;;;;;;2.41;2.18;;;;;;;19.68;39.61;101026.25;;;;-54
2020/03/14 06:05:39;;;;;;;2.50;2.10;;;;;;;19.72;39.61;101026.80;;;;-53
2020/03/14 06:08:39;;;;;;;2.92;2.19;;;;;;;19.76;39.60;101026.91;;;;-53
2020/03/14 06:11:39;;;;;;;2.80;2.09;;;;;;;19.80;39.62;101026.44;;;;-53
2020/03/14 06:14:39;;;;;;;2.73;2.19;;;;;;;19.83;39.51;101023.64;;;;-53
2020/03/14 06:17:39;;;;;;;2.74;2.16;;;;;;;19.84;39.58;101025.38;;;;-53
2020/03/14 06:20:39;;;;;;;2.45;2.15;;;;;;;19.88;39.50;101027.09;;;;-53
2020/03/14 06:23:39;;;;;;;5.30;2.69;;;;;;;19.78;38.52;101032.22;;;;-50
2020/03/14 06:26:39;;;;;;;4.44;2.61;;;;;;;19.53;36.74;101033.22;;;;-49
2020/03/14 06:29:39;;;;;;;4.57;2.80;;;;;;;19.36;35.52;101035.82;;;;-48
2020/03/14 06:32:39;;;;;;;4.47;2.79;;;;;;;19.20;35.32;101035.42;;;;-55
2020/03/14 06:35:39;;;;;;;6.93;2.66;;;;;;;19.32;36.66;101029.12;;;;-56
2020/03/14 06:38:39;;;;;;;5.19;2.89;;;;;;;19.42;37.17;101038.30;;;;-56
2020/03/14 06:41:39;;;;;;;5.25;2.58;;;;;;;19.50;37.20;101039.88;;;;-56
2020/03/14 06:44:39;;;;;;;5.78;2.45;;;;;;;19.55;37.24;101038.70;;;;-56
2020/03/14 06:47:39;;;;;;;4.48;2.64;;;;;;;19.61;37.39;101035.22;;;;-56
2020/03/14 06:50:39;;;;;;;5.49;2.39;;;;;;;19.64;37.50;101030.23;;;;-56
2020/03/14 06:53:39;;;;;;;4.74;2.39;;;;;;;19.67;37.51;101029.55;;;;-52
2020/03/14 06:56:39;;;;;;;4.16;2.21;;;;;;;19.71;37.61;101027.88;;;;-52
2020/03/14 06:59:39;;;;;;;5.03;2.21;;;;;;;19.74;37.68;101032.66;;;;-52
2020/03/14 07:02:39;;;;;;;5.20;2.37;;;;;;;19.78;37.80;101030.59;;;;-52
2020/03/14 07:05:39;;;;;;;3.91;2.34;;;;;;;19.80;37.83;101035.39;;;;-52
2020/03/14 07:08:39;;;;;;;3.80;2.31;;;;;;;19.86;37.94;101034.70;;;;-51
2020/03/14 07:11:39;;;;;;;4.54;2.46;;;;;;;19.87;37.92;101036.09;;;;-52
2020/03/14 07:14:39;;;;;;;4.27;2.24;;;;;;;19.91;37.95;101039.09;;;;-52
2020/03/14 07:17:39;;;;;;;4.37;2.52;;;;;;;19.95;38.00;101042.88;;;;-52
2020/03/14 07:20:39;;;;;;;2.94;2.32;;;;;;;19.96;38.06;101042.72;;;;-52
2020/03/14 07:23:39;;;;;;;3.37;2.11;;;;;;;20.00;38.09;101047.66;;;;-52
2020/03/14 07:26:39;;;;;;;2.97;2.18;;;;;;;20.01;38.13;101045.97;;;;-52
2020/03/14 07:29:39;;;;;;;3.34;2.18;;;;;;;20.03;38.18;101054.73;;;;-52
2020/03/14 07:32:39;;;;;;;2.75;2.11;;;;;;;20.06;38.10;101056.86;;;;-52
2020/03/14 07:35:39;;;;;;;3.47;2.11;;;;;;;20.07;38.20;101054.67;;;;-52
2020/03/14 07:38:39;;;;;;;2.92;2.07;;;;;;;20.10;38.12;101052.53;;;;-52
2020/03/14 07:41:39;;;;;;;2.61;2.01;;;;;;;20.12;38.12;101053.91;;;;-52
2020/03/14 07:44:39;;;;;;;2.87;2.15;;;;;;;20.13;38.15;101059.06;;;;-54
2020/03/14 07:47:39;;;;;;;2.65;1.99;;;;;;;20.13;38.17;101061.41;;;;-55
2020/03/14 07:50:39;;;;;;;3.02;1.91;;;;;;;20.14;38.17;101063.65;;;;-55
2020/03/14 07:53:39;;;;;;;2.57;2.03;;;;;;;20.16;38.19;101069.02;;;;-55
2020/03/14 07:56:39;;;;;;;3.33;1.95;;;;;;;20.16;38.25;101068.94;;;;-55
2020/03/14 07:59:39;;;;;;;2.65;1.91;;;;;;;20.17;38.21;101069.91;;;;-56
2020/03/14 08:02:39;;;;;;;2.47;1.88;;;;;;;20.19;38.24;101072.62;;;;-55
2020/03/14 08:05:39;;;;;;;3.16;1.99;;;;;;;20.21;38.24;101077.66;;;;-55
2020/03/14 08:08:39;;;;;;;2.70;1.98;;;;;;;20.21;38.23;101077.19;;;;-55
2020/03/14 08:11:39;;;;;;;3.29;2.03;;;;;;;20.23;38.24;101072.98;;;;-55
2020/03/14 08:14:39;;;;;;;2.83;2.03;;;;;;;20.25;38.21;101075.01;;;;-55
2020/03/14 08:17:39;;;;;;;2.26;1.98;;;;;;;20.28;38.26;101082.10;;;;-55
2020/03/14 08:20:39;;;;;;;2.98;1.93;;;;;;;20.30;38.27;101084.26;;;;-55
2020/03/14 08:23:39;;;;;;;3.13;2.03;;;;;;;20.32;38.16;101095.17;;;;-55
2020/03/14 08:26:39;;;;;;;2.41;1.89;;;;;;;20.34;38.19;101099.56;;;;-55
2020/03/14 08:29:39;;;;;;;2.73;1.90;;;;;;;20.34;38.16;101103.83;;;;-55
2020/03/14 08:32:39;;;;;;;2.95;2.10;;;;;;;20.34;38.22;101112.99;;;;-55
2020/03/14 08:35:39;;;;;;;2.14;1.94;;;;;;;20.38;38.18;101116.22;;;;-56
2020/03/14 08:38:39;;;;;;;2.43;1.83;;;;;;;20.40;38.18;101120.13;;;;-56
2020/03/14 08:41:39;;;;;;;2.90;2.02;;;;;;;20.39;38.22;101120.18;;;;-56
2020/03/14 08:44:39;;;;;;;2.31;1.85;;;;;;;20.40;38.21;101117.55;;;;-56
2020/03/14 08:47:39;;;;;;;2.44;1.89;;;;;;;20.42;38.20;101122.08;;;;-56
2020/03/14 08:50:39;;;;;;;2.23;1.81;;;;;;;20.42;38.23;101120.95;;;;-56
2020/03/14 08:53:39;;;;;;;2.59;1.88;;;;;;;20.43;38.23;101120.89;;;;-56
2020/03/14 08:56:39;;;;;;;2.95;1.93;;;;;;;20.42;38.16;101120.34;;;;-56
2020/03/14 08:59:39;;;;;;;2.20;1.84;;;;;;;20.43;38.18;101116.53;;;;-56
2020/03/14 09:02:39;;;;;;;2.74;1.80;;;;;;;20.43;38.13;101115.70;;;;-52
2020/03/14 09:05:39;;;;;;;4.84;2.11;;;;;;;20.42;37.84;101114.87;;;;-48
2020/03/14 09:08:39;;;;;;;3.38;2.07;;;;;;;20.42;37.93;101118.32;;;;-51
2020/03/14 09:11:39;;;;;;;4.83;2.11;;;;;;;20.43;38.25;101120.29;;;;-51
2020/03/14 09:14:39;;;;;;;4.22;2.28;;;;;;;20.43;37.93;101120.50;;;;-51
2020/03/14 09:17:39;;;;;;;3.26;2.09;;;;;;;20.42;37.71;101118.33;;;;-51
2020/03/14 09:20:39;;;;;;;2.61;2.01;;;;;;;20.42;37.59;101117.26;;;;-51
2020/03/14 09:23:39;;;;;;;2.78;2.05;;;;;;;20.41;37.62;101116.88;;;;-52
2020/03/14 09:26:39;;;;;;;2.15;1.80;;;;;;;20.42;37.66;101117.77;;;;-51
2020/03/14 09:29:39;;;;;;;2.53;1.94;;;;;;;20.43;37.85;101117.53;;;;-51
2020/03/14 09:32:39;;;;;;;3.46;1.91;;;;;;;20.44;37.89;101118.59;;;;-51
2020/03/14 09:35:39;;;;;;;2.27;1.90;;;;;;;20.43;37.73;101120.72;;;;-51
2020/03/14 09:38:39;;;;;;;3.19;2.11;;;;;;;20.44;37.74;101117.09;;;;-52
2020/03/14 09:41:39;;;;;;;3.21;1.97;;;;;;;20.45;37.74;101123.41;;;;-52
2020/03/14 09:44:39;;;;;;;3.50;1.92;;;;;;;20.45;37.68;101127.53;;;;-52
2020/03/14 09:47:39;;;;;;;1.87;1.68;;;;;;;20.47;37.83;101128.81;;;;-51
2020/03/14 09:50:39;;;;;;;2.64;2.03;;;;;;;20.48;37.72;101127.82;;;;-51
2020/03/14 09:53:39;;;;;;;3.40;2.08;;;;;;;20.48;37.75;101126.92;;;;-51
2020/03/14 09:56:39;;;;;;;3.05;1.77;;;;;;;20.48;37.75;101126.52;;;;-51
2020/03/14 09:59:39;;;;;;;2.28;1.77;;;;;;;20.48;37.75;101122.43;;;;-51
2020/03/14 10:02:39;;;;;;;2.00;1.80;;;;;;;20.51;37.76;101124.28;;;;-52
2020/03/14 10:05:39;;;;;;;2.34;1.90;;;;;;;20.51;37.75;101122.64;;;;-51
2020/03/14 10:08:39;;;;;;;2.30;1.91;;;;;;;20.51;37.68;101121.64;;;;-51
2020/03/14 10:11:39;;;;;;;2.71;1.95;;;;;;;20.53;37.66;101117.20;;;;-51
2020/03/14 10:14:39;;;;;;;2.93;1.98;;;;;;;20.54;37.79;101118.60;;;;-52
2020/03/14 10:17:39;;;;;;;2.29;1.79;;;;;;;20.57;38.15;101112.84;;;;-49
2020/03/14 10:20:39;;;;;;;4.43;2.12;;;;;;;20.61;38.15;101109.85;;;;-50
2020/03/14 10:23:39;;;;;;;3.17;1.81;;;;;;;20.63;38.32;101108.89;;;;-50
2020/03/14 10:26:39;;;;;;;2.59;1.80;;;;;;;20.68;38.74;101107.30;;;;-54
2020/03/14 10:29:39;;;;;;;3.91;1.95;;;;;;;20.70;38.45;101107.95;;;;-50
2020/03/14 10:32:39;;;;;;;2.66;1.93;;;;;;;20.71;38.46;101105.59;;;;-47
2020/03/14 10:35:39;;;;;;;3.98;2.07;;;;;;;20.73;38.73;101100.22;;;;-48
2020/03/14 10:38:39;;;;;;;3.43;2.03;;;;;;;20.74;38.68;101101.67;;;;-51
2020/03/14 10:41:39;;;;;;;2.56;1.86;;;;;;;20.76;38.67;101102.66;;;;-55
2020/03/14 10:44:39;;;;;;;3.25;2.13;;;;;;;20.77;38.60;101102.25;;;;-57
2020/03/14 10:47:39;;;;;;;3.47;2.12;;;;;;;20.77;38.36;101097.72;;;;-55
2020/03/14 10:50:39;;;;;;;4.10;2.12;;;;;;;20.79;39.17;101099.17;;;;-55
2020/03/14 10:53:39;;;;;;;5.25;1.93;;;;;;;20.79;38.79;101098.17;;;;-55
2020/03/14 10:56:39;;;;;;;3.85;2.04;;;;;;;20.80;38.25;101101.70;;;;-58
2020/03/14 10:59:39;;;;;;;2.75;1.81;;;;;;;20.82;38.73;101099.98;;;;-51
2020/03/14 11:02:39;;;;;;;5.43;1.82;;;;;;;20.83;38.57;101098.17;;;;-53
2020/03/14 11:05:39;;;;;;;4.07;2.10;;;;;;;20.85;38.44;101099.13;;;;-54
2020/03/14 11:08:39;;;;;;;4.79;2.23;;;;;;;20.86;38.53;101097.14;;;;-59
2020/03/14 11:11:39;;;;;;;3.80;1.96;;;;;;;20.87;38.64;101100.73;;;;-55
2020/03/14 11:14:39;;;;;;;3.35;1.96;;;;;;;20.89;38.84;101094.72;;;;-57
2020/03/14 11:17:39;;;;;;;3.59;2.04;;;;;;;20.91;38.54;101096.84;;;;-53
2020/03/14 11:20:39;;;;;;;3.11;1.87;;;;;;;20.94;38.87;101095.30;;;;-57
2020/03/14 11:23:39;;;;;;;3.51;1.80;;;;;;;20.93;38.53;101091.06;;;;-53
2020/03/14 11:26:39;;;;;;;5.19;2.23;;;;;;;20.96;38.78;101091.95;;;;-51
2020/03/14 11:29:39;;;;;;;2.89;1.89;;;;;;;20.97;38.81;101091.09;;;;-52
2020/03/14 11:32:39;;;;;;;5.36;1.87;;;;;;;20.97;38.97;101088.30;;;;-51
2020/03/14 11:35:39;;;;;;;4.78;1.82;;;;;;;20.98;38.75;101085.09;;;;-53
2020/03/14 11:38:39;;;;;;;2.21;1.80;;;;;;;20.99;39.01;101082.95;;;;-56
2020/03/14 11:41:39;;;;;;;2.74;1.96;;;;;;;20.98;38.54;101081.80;;;;-56
2020/03/14 11:44:39;;;;;;;3.59;1.84;;;;;;;20.98;38.60;101082.97;;;;-55
2020/03/14 11:47:39;;;;;;;3.17;1.89;;;;;;;20.98;38.56;101084.08;;;;-54
2020/03/14 11:50:39;;;;;;;3.73;1.83;;;;;;;20.99;38.85;101081.84;;;;-52
2020/03/14 11:53:39;;;;;;;2.41;1.96;;;;;;;20.99;38.88;101080.67;;;;-56
2020/03/14 11:56:39;;;;;;;3.13;1.80;;;;;;;20.99;38.78;101074.55;;;;-59
2020/03/14 11:59:39;;;;;;;2.91;1.83;;;;;;;21.00;38.86;101075.44;;;;-49
2020/03/14 12:02:39;;;;;;;2.59;1.80;;;;;;;21.01;38.80;101072.30;;;;-51
2020/03/14 12:05:39;;;;;;;3.73;1.80;;;;;;;21.05;39.07;101069.61;;;;-49
2020/03/14 12:08:39;;;;;;;3.02;1.91;;;;;;;21.04;38.79;101065.36;;;;-50
2020/03/14 12:11:39;;;;;;;3.19;1.85;;;;;;;21.06;38.62;101061.42;;;;-49
2020/03/14 12:14:39;;;;;;;3.86;1.89;;;;;;;21.07;38.37;101057.65;;;;-51
2020/03/14 12:17:39;;;;;;;2.55;1.84;;;;;;;21.05;38.35;101055.53;;;;-51
2020/03/14 12:20:39;;;;;;;2.49;1.78;;;;;;;21.05;38.32;101055.33;;;;-50
2020/03/14 12:23:39;;;;;;;2.87;1.89;;;;;;;21.03;38.08;101051.18;;;;-51
2020/03/14 12:26:39;;;;;;;2.92;1.70;;;;;;;21.03;37.92;101051.41;;;;-51
2020/03/14 12:29:39;;;;;;;2.21;1.71;;;;;;;21.01;37.90;101045.55;;;;-50
2020/03/14 12:32:39;;;;;;;3.13;1.83;;;;;;;21.01;37.87;101039.83;;;;-50
2020/03/14 12:35:39;;;;;;;2.63;1.79;;;;;;;21.00;37.82;101041.02;;;;-51
2020/03/14 12:38:39;;;;;;;2.82;1.79;;;;;;;20.99;37.88;101037.39;;;;-50
2020/03/14 12:41:39;;;;;;;3.45;1.70;;;;;;;20.98;37.89;101032.64;;;;-50
2020/03/14 12:44:39;;;;;;;2.81;1.79;;;;;;;20.98;37.95;101027.60;;;;-60
2020/03/14 12:47:39;;;;;;;5.79;2.27;;;;;;;20.81;36.41;101024.77;;;;-52
2020/03/14 12:50:39;;;;;;;6.23;2.42;;;;;;;20.66;35.86;101027.80;;;;-53
2020/03/14 12:53:39;;;;;;;6.53;2.28;;;;;;;20.57;35.31;101025.34;;;;-50
2020/03/14 12:56:39;;;;;;;7.09;2.52;;;;;;;20.47;34.88;101020.59;;;;-53
2020/03/14 12:59:39;;;;;;;5.45;2.30;;;;;;;20.37;34.31;101022.55;;;;-52
2020/03/14 13:02:39;;;;;;;5.82;2.39;;;;;;;20.33;33.64;101016.43;;;;-53
2020/03/14 13:05:39;;;;;;;4.73;2.01;;;;;;;20.28;33.29;101017.96;;;;-55
2020/03/14 13:08:39;;;;;;;6.14;2.11;;;;;;;20.35;34.60;101011.10;;;;-56
2020/03/14 13:11:39;;;;;;;5.63;2.33;;;;;;;20.43;34.63;101009.49;;;;-56
2020/03/14 13:14:39;;;;;;;3.99;2.11;;;;;;;20.48;35.04;101012.19;;;;-56
2020/03/14 13:17:39;;;;;;;6.04;2.02;;;;;;;20.53;35.29;101012.80;;;;-56
2020/03/14 13:20:39;;;;;;;6.26;2.13;;;;;;;20.57;35.49;101013.59;;;;-56
2020/03/14 13:23:39;;;;;;;3.58;2.01;;;;;;;20.61;35.63;101013.29;;;;-56
2020/03/14 13:26:39;;;;;;;3.77;1.89;;;;;;;20.65;35.72;101016.50;;;;-56
2020/03/14 13:29:39;;;;;;;4.20;1.75;;;;;;;20.66;35.83;101014.94;;;;-56
2020/03/14 13:32:39;;;;;;;3.46;1.79;;;;;;;20.67;36.01;101019.46;;;;-56
2020/03/14 13:35:39;;;;;;;5.22;1.71;;;;;;;20.69;36.05;101020.39;;;;-56
2020/03/14 13:38:39;;;;;;;3.48;1.79;;;;;;;20.70;36.05;101019.00;;;;-56
2020/03/14 13:41:39;;;;;;;3.98;1.99;;;;;;;20.71;36.18;101018.14;;;;-56
2020/03/14 13:44:39;;;;;;;2.75;1.83;;;;;;;20.73;36.17;101018.80;;;;-56
2020/03/14 13:47:39;;;;;;;3.11;1.91;;;;;;;20.72;36.30;101017.19;;;;-56
2020/03/14 13:50:39;;;;;;;4.51;1.88;;;;;;;20.72;36.34;101017.48;;;;-56
2020/03/14 13:53:39;;;;;;;2.81;1.59;;;;;;;20.72;36.36;101014.06;;;;-57
2020/03/14 13:56:39;;;;;;;4.93;1.70;;;;;;;20.73;36.37;101018.20;;;;-56
2020/03/14 13:59:39;;;;;;;2.66;1.67;;;;;;;20.73;36.42;101017.47;;;;-56
2020/03/14 14:02:39;;;;;;;2.15;1.68;;;;;;;20.73;36.47;101019.08;;;;-56
2020/03/14 14:05:39;;;;;;;2.29;1.54;;;;;;;20.73;36.50;101020.48;;;;-56
2020/03/14 14:08:39;;;;;;;3.04;1.70;;;;;;;20.72;36.54;101020.37;;;;-56
2020/03/14 14:11:39;;;;;;;2.48;1.62;;;;;;;20.73;36.54;101020.55;;;;-56
2020/03/14 14:14:39;;;;;;;2.83;1.64;;;;;;;20.75;36.70;101022.16;;;;-56
2020/03/14 14:17:39;;;;;;;2.47;1.61;;;;;;;20.73;36.61;101018.81;;;;-56
2020/03/14 14:20:39;;;;;;;2.26;1.35;;;;;;;20.74;36.70;101016.00;;;;-56
2020/03/14 14:23:39;;;;;;;4.52;1.67;;;;;;;20.76;36.90;101018.02;;;;-49
2020/03/14 14:26:39;;;;;;;2.74;1.49;;;;;;;20.77;37.25;101014.70;;;;-48
2020/03/14 14:29:39;;;;;;;2.64;1.62;;;;;;;20.78;37.37;101012.40;;;;-48
2020/03/14 14:32:39;;;;;;;2.47;1.54;;;;;;;20.79;37.39;101012.15;;;;-48
2020/03/14 14:35:39;;;;;;;2.74;1.66;;;;;;;20.80;37.35;101012.63;;;;-47
2020/03/14 14:38:39;;;;;;;2.45;1.59;;;;;;;20.84;37.22;101014.16;;;;-47
2020/03/14 14:41:39;;;;;;;3.24;1.73;;;;;;;20.84;37.71;101016.12;;;;-48
2020/03/14 14:44:39;;;;;;;3.38;1.60;;;;;;;20.85;37.62;101018.47;;;;-50
2020/03/14 14:47:39;;;;;;;1.95;1.47;;;;;;;20.87;37.89;101016.63;;;;-49
2020/03/14 14:50:39;;;;;;;4.55;1.68;;;;;;;20.90;37.79;101021.50;;;;-54
2020/03/14 14:53:39;;;;;;;3.67;1.86;;;;;;;20.91;37.63;101022.69;;;;-58
2020/03/14 14:56:39;;;;;;;4.59;1.48;;;;;;;20.90;37.37;101030.80;;;;-56
2020/03/14 14:59:39;;;;;;;2.26;1.44;;;;;;;20.92;37.63;101029.28;;;;-54
2020/03/14 15:02:39;;;;;;;5.65;1.58;;;;;;;20.93;37.32;101032.40;;;;-53
2020/03/14 15:05:39;;;;;;;4.59;1.87;;;;;;;20.93;37.55;101033.41;;;;-50
2020/03/14 15:08:39;;;;;;;4.07;1.69;;;;;;;20.95;37.77;101037.16;;;;-50
2020/03/14 15:11:41;;;;;;;4.92;1.73;;;;;;;20.93;37.40;101038.27;;;;-54
2020/03/14 15:14:39;;;;;;;7.05;1.90;;;;;;;20.93;37.33;101035.98;;;;-50
2020/03/14 15:17:39;;;;;;;5.68;1.77;;;;;;;20.95;37.49;101038.88;;;;-53
2020/03/14 15:20:39;;;;;;;2.65;1.57;;;;;;;20.95;37.53;101037.33;;;;-54
2020/03/14 15:23:39;;;;;;;5.63;1.61;;;;;;;20.96;37.52;101038.31;;;;-50
2020/03/14 15:26:39;;;;;;;3.11;1.69;;;;;;;20.96;37.42;101038.48;;;;-52
2020/03/14 15:29:39;;;;;;;7.61;1.86;;;;;;;20.96;37.56;101039.39;;;;-57
2020/03/14 15:32:39;;;;;;;2.56;1.53;;;;;;;20.96;37.59;101039.42;;;;-56
2020/03/14 15:35:41;;;;;;;5.03;1.83;;;;;;;20.98;37.68;101045.73;;;;-56
2020/03/14 15:38:39;;;;;;;3.41;1.57;;;;;;;20.99;37.71;101044.83;;;;-52
2020/03/14 15:41:39;;;;;;;3.61;1.83;;;;;;;20.97;37.58;101042.83;;;;-52
2020/03/14 15:44:39;;;;;;;4.91;1.71;;;;;;;20.96;37.58;101045.02;;;;-50
2020/03/14 15:47:39;;;;;;;5.21;1.61;;;;;;;20.97;37.73;101048.38;;;;-52
2020/03/14 15:50:39;;;;;;;2.61;1.77;;;;;;;20.98;37.97;101047.48;;;;-53
2020/03/14 15:53:39;;;;;;;2.50;1.49;;;;;;;20.99;37.83;101046.92;;;;-52
2020/03/14 15:56:39;;;;;;;3.00;1.71;;;;;;;21.00;38.14;101049.09;;;;-53
2020/03/14 15:59:39;;;;;;;3.63;1.64;;;;;;;21.03;38.16;101050.67;;;;-50
2020/03/14 16:02:39;;;;;;;4.95;1.68;;;;;;;21.03;37.92;101055.17;;;;-50
2020/03/14 16:05:39;;;;;;;2.43;1.67;;;;;;;21.04;37.98;101057.61;;;;-55
2020/03/14 16:08:39;;;;;;;3.23;1.60;;;;;;;21.06;38.26;101058.20;;;;-53
2020/03/14 16:11:39;;;;;;;2.14;1.50;;;;;;;21.07;38.14;101056.88;;;;-50
2020/03/14 16:14:39;;;;;;;3.25;1.67;;;;;;;21.10;38.33;101058.76;;;;-52
2020/03/14 16:17:39;;;;;;;3.17;1.53;;;;;;;21.11;38.44;101057.91;;;;-56
2020/03/14 16:20:39;;;;;;;2.75;1.41;;;;;;;21.11;38.32;101054.55;;;;-50
2020/03/14 16:23:39;;;;;;;3.76;1.50;;;;;;;21.13;38.47;101056.16;;;;-49
2020/03/14 16:26:39;;;;;;;3.09;1.49;;;;;;;21.16;38.52;101054.00;;;;-48
2020/03/14 16:29:39;;;;;;;2.73;1.52;;;;;;;21.17;38.31;101053.99;;;;-49
2020/03/14 16:32:39;;;;;;;2.23;1.42;;;;;;;21.19;38.55;101053.92;;;;-52
2020/03/14 16:35:39;;;;;;;2.53;1.62;;;;;;;21.21;38.36;101050.88;;;;-51
2020/03/14 16:38:39;;;;;;;2.59;1.49;;;;;;;21.21;38.31;101054.69;;;;-56
2020/03/14 16:41:39;;;;;;;2.34;1.59;;;;;;;21.20;37.75;101055.98;;;;-55
2020/03/14 16:44:39;;;;;;;2.28;1.45;;;;;;;21.18;37.44;101056.32;;;;-56
2020/03/14 16:47:39;;;;;;;3.57;1.70;;;;;;;21.19;37.79;101055.94;;;;-48
2020/03/14 16:50:39;;;;;;;4.93;1.56;;;;;;;21.18;37.40;101050.52;;;;-49